createdAt,value
2023-04-17T00:00:27.357Z,99980.88
2023-04-17T00:03:31.788Z,99978.34
2023-04-17T00:06:34.045Z,99973.47
2023-04-17T00:09:36.295Z,99980.72
2023-04-17T00:12:38.235Z,99972.09
2023-04-17T00:15:40.566Z,99966.12
2023-04-17T00:18:42.527Z,99972.25
2023-04-17T00:21:44.807Z,99972.25
2023-04-17T00:24:46.814Z,99966.50
2023-04-17T00:27:49.127Z,99975.50
2023-04-17T00:30:51.089Z,99967.75
2023-04-17T00:33:53.324Z,99973.06
2023-04-17T00:36:55.272Z,99966.03
2023-04-17T00:39:57.536Z,99978.50
2023-04-17T00:43:00.516Z,99975.38
2023-04-17T00:46:03.657Z,99971.09
2023-04-17T00:49:05.781Z,99966.41
2023-04-17T00:52:08.286Z,99969.00
2023-04-17T00:55:10.731Z,99965.09
2023-04-17T00:58:13.426Z,99966.34
2023-04-17T01:01:15.629Z,99968.41
2023-04-17T01:04:17.984Z,99958.38
2023-04-17T01:07:20.057Z,99962.06
2023-04-17T01:10:22.674Z,99957.53
2023-04-17T01:13:24.868Z,99969.25
2023-04-17T01:16:30.380Z,99970.06
2023-04-17T01:19:32.438Z,99960.34
2023-04-17T01:22:35.086Z,99960.50
2023-04-17T01:25:37.356Z,99965.75
2023-04-17T01:28:39.644Z,99961.78
2023-04-17T01:31:41.642Z,99955.94
2023-04-17T01:34:43.917Z,99955.69
2023-04-17T01:37:46.051Z,99962.34
2023-04-17T01:40:48.362Z,99951.75
2023-04-17T01:43:50.757Z,99950.31
2023-04-17T01:46:53.108Z,99950.78
2023-04-17T01:49:56.997Z,99954.97
2023-04-17T01:52:59.259Z,99959.00
2023-04-17T01:56:02.079Z,99962.72
2023-04-17T01:59:04.505Z,99953.03
2023-04-17T02:02:06.857Z,99944.81
2023-04-17T02:05:09.383Z,99946.69
2023-04-17T02:08:11.935Z,99953.13
2023-04-17T02:11:15.357Z,99957.78
2023-04-17T02:14:17.947Z,99951.53
2023-04-17T02:17:20.241Z,99954.03
2023-04-17T02:20:22.508Z,99951.12
2023-04-17T02:23:24.910Z,99961.03
2023-04-17T02:26:27.121Z,99951.81
2023-04-17T02:29:29.059Z,99953.31
2023-04-17T02:32:31.856Z,99949.38
2023-04-17T02:35:34.110Z,99944.72
2023-04-17T02:38:37.716Z,99949.22
2023-04-17T02:41:39.736Z,99942.66
2023-04-17T02:44:42.808Z,99946.34
2023-04-17T02:47:44.825Z,99935.69
2023-04-17T02:50:47.393Z,99942.88
2023-04-17T02:53:49.879Z,99942.47
2023-04-17T02:56:52.998Z,99945.50
2023-04-17T02:59:55.387Z,99939.84
2023-04-17T03:02:57.766Z,99942.03
2023-04-17T03:05:59.881Z,99948.97
2023-04-17T03:09:04.481Z,99941.72
2023-04-17T03:12:06.584Z,99953.41
2023-04-17T03:15:09.139Z,99950.69
2023-04-17T03:18:11.351Z,99946.75
2023-04-17T03:21:13.593Z,99957.50
2023-04-17T03:24:15.574Z,99952.34
2023-04-17T03:27:24.174Z,99948.16
2023-04-17T03:30:26.460Z,99949.66
2023-04-17T03:33:29.361Z,99954.44
2023-04-17T03:36:32.380Z,99953.59
2023-04-17T03:39:34.698Z,99957.31
2023-04-17T03:42:36.716Z,99956.00
2023-04-17T03:45:39.018Z,99961.28
2023-04-17T03:48:41.035Z,99967.50
2023-04-17T03:51:43.251Z,99961.91
2023-04-17T03:54:45.701Z,99966.66
2023-04-17T03:57:51.058Z,99961.47
2023-04-17T04:00:55.601Z,99966.66
2023-04-17T04:03:59.190Z,99963.34
2023-04-17T04:07:01.565Z,99960.41
2023-04-17T04:10:04.172Z,99970.22
2023-04-17T04:13:06.844Z,99967.44
2023-04-17T04:16:09.887Z,99976.03
2023-04-17T04:19:13.633Z,99979.16
2023-04-17T04:22:18.571Z,99978.69
2023-04-17T04:25:21.591Z,99970.78
2023-04-17T04:28:24.317Z,99976.31
2023-04-17T04:31:29.690Z,99984.19
2023-04-17T04:34:33.123Z,99985.00
2023-04-17T04:37:36.022Z,99998.72
2023-04-17T04:40:39.891Z,100002.38
2023-04-17T04:43:42.514Z,100014.78
2023-04-17T04:46:45.211Z,100010.34
2023-04-17T04:49:47.440Z,100007.47
2023-04-17T04:52:50.971Z,100006.25
2023-04-17T04:55:54.515Z,100017.66
2023-04-17T04:58:57.621Z,100021.81
2023-04-17T05:02:00.837Z,100027.50
2023-04-17T05:05:04.428Z,100022.31
2023-04-17T05:08:07.423Z,100030.94
2023-04-17T05:11:10.536Z,100034.47
2023-04-17T05:14:14.020Z,100031.97
2023-04-17T05:17:16.989Z,100039.50
2023-04-17T05:20:19.420Z,100036.59
2023-04-17T05:23:22.888Z,100037.31
2023-04-17T05:26:25.208Z,100035.53
2023-04-17T05:29:27.783Z,100039.88
2023-04-17T05:32:31.335Z,100040.16
2023-04-17T05:35:35.617Z,100038.16
2023-04-17T05:38:37.626Z,100041.38
2023-04-17T05:41:41.777Z,100038.22
2023-04-17T05:44:43.749Z,100031.62
2023-04-17T05:47:46.331Z,100031.41
2023-04-17T05:50:49.974Z,100038.22
2023-04-17T05:53:52.851Z,100039.81
2023-04-17T05:56:56.552Z,100041.34
2023-04-17T05:59:59.653Z,100046.47
2023-04-17T06:03:04.094Z,100048.91
2023-04-17T06:06:08.727Z,100044.91
2023-04-17T06:09:11.633Z,100050.50
2023-04-17T06:12:16.277Z,100050.81
2023-04-17T06:15:18.529Z,100051.75
2023-04-17T06:18:21.288Z,100053.31
2023-04-17T06:21:23.494Z,100051.38
2023-04-17T06:24:27.135Z,100057.78
2023-04-17T06:27:30.453Z,100050.66
2023-04-17T06:30:34.236Z,100061.97
2023-04-17T06:33:37.885Z,100065.03
2023-04-17T06:36:43.508Z,100068.09
2023-04-17T06:39:45.526Z,100057.78
2023-04-17T06:42:49.188Z,100068.06
2023-04-17T06:45:53.252Z,100072.38
2023-04-17T06:48:58.138Z,100072.09
2023-04-17T06:52:00.720Z,100072.81
2023-04-17T06:55:03.308Z,100078.13
2023-04-17T06:58:07.989Z,100082.28
2023-04-17T07:01:11.634Z,100082.72
2023-04-17T07:04:15.075Z,100086.22
2023-04-17T07:07:21.376Z,100088.28
2023-04-17T07:10:24.827Z,100081.75
2023-04-17T07:13:42.336Z,100084.28
2023-04-17T07:16:47.404Z,100086.19
2023-04-17T07:19:56.300Z,100080.34
2023-04-17T07:23:23.390Z,100087.50
2023-04-17T07:41:51.196Z,100092.25
2023-04-17T08:21:23.920Z,100098.69
2023-04-17T08:24:42.351Z,100093.19
2023-04-17T08:28:26.904Z,100097.72
2023-04-17T08:31:29.660Z,100088.78
2023-04-17T08:34:32.759Z,100091.03
2023-04-17T08:37:36.023Z,100100.72
2023-04-17T08:40:42.032Z,100094.87
2023-04-17T08:43:48.698Z,100094.06
2023-04-17T08:46:51.044Z,100093.38
2023-04-17T08:49:56.009Z,100090.91
2023-04-17T08:52:58.046Z,100090.25
2023-04-17T08:56:06.890Z,100087.00
2023-04-17T08:59:11.005Z,100091.66
2023-04-17T09:02:14.718Z,100095.81
2023-04-17T09:05:23.448Z,100098.00
2023-04-17T09:08:25.753Z,100090.66
2023-04-17T09:11:28.012Z,100093.63
2023-04-17T09:14:30.849Z,100086.16
2023-04-17T09:17:38.660Z,100085.47
2023-04-17T09:20:49.379Z,100092.81
2023-04-17T09:23:52.735Z,100088.00
2023-04-17T09:26:55.012Z,100090.50
2023-04-17T09:30:00.003Z,100080.03
2023-04-17T09:33:05.616Z,100077.72
2023-04-17T09:36:22.162Z,100087.38
2023-04-17T09:39:24.783Z,100089.34
2023-04-17T09:42:27.468Z,100083.31
2023-04-17T09:45:35.672Z,100085.25
2023-04-17T09:48:37.763Z,100076.94
2023-04-17T09:51:40.309Z,100076.84
2023-04-17T09:54:43.399Z,100082.16
2023-04-17T09:57:46.576Z,100069.03
2023-04-17T10:00:50.050Z,100075.69
2023-04-17T10:03:52.531Z,100063.50
2023-04-17T10:06:56.668Z,100072.88
2023-04-17T10:10:01.036Z,100076.19
2023-04-17T10:13:04.342Z,100075.03
2023-04-17T10:16:06.838Z,100063.38
2023-04-17T10:19:25.134Z,100069.69
2023-04-17T10:22:27.896Z,100069.97
2023-04-17T10:25:31.372Z,100071.84
2023-04-17T10:28:49.407Z,100062.38
2023-04-17T10:32:10.281Z,100064.88
2023-04-17T10:35:15.752Z,100061.22
2023-04-17T10:38:30.737Z,100064.41
2023-04-17T10:41:32.777Z,100069.56
2023-04-17T10:44:38.893Z,100061.72
2023-04-17T10:47:42.089Z,100062.72
2023-04-17T10:50:45.510Z,100061.06
2023-04-17T10:53:48.826Z,100054.78
2023-04-17T10:56:53.559Z,100056.78
2023-04-17T11:00:11.927Z,100059.88
2023-04-17T11:03:15.713Z,100054.41
2023-04-17T11:06:18.129Z,100059.84
2023-04-17T11:09:21.289Z,100059.56
2023-04-17T11:12:23.246Z,100060.81
2023-04-17T11:15:34.105Z,100053.47
2023-04-17T11:18:37.523Z,100058.69
2023-04-17T11:21:42.078Z,100055.88
2023-04-17T11:24:44.274Z,100052.38
2023-04-17T11:27:46.548Z,100052.75
2023-04-17T11:30:49.042Z,100055.56
2023-04-17T11:33:51.369Z,100052.59
2023-04-17T11:36:54.348Z,100047.88
2023-04-17T11:40:01.847Z,100046.25
2023-04-17T11:43:09.445Z,100050.53
2023-04-17T11:46:11.854Z,100051.88
2023-04-17T11:49:14.017Z,100043.25
2023-04-17T11:52:17.904Z,100046.75
2023-04-17T12:17:06.548Z,100039.41
2023-04-17T12:20:08.743Z,100040.41
2023-04-17T12:26:18.088Z,100043.91
2023-04-17T12:29:29.521Z,100037.91
2023-04-17T12:32:45.890Z,100035.72
2023-04-17T12:35:48.329Z,100044.88
2023-04-17T12:38:50.510Z,100041.38
2023-04-17T12:41:52.774Z,100037.09
2023-04-17T12:44:54.700Z,100039.59
2023-04-17T12:47:57.177Z,100027.94
2023-04-17T12:50:59.267Z,100029.63
2023-04-17T12:54:01.539Z,100031.13
2023-04-17T12:57:03.643Z,100017.88
2023-04-17T13:00:07.148Z,100012.03
2023-04-17T13:03:09.300Z,100001.22
2023-04-17T13:06:12.342Z,100006.47
2023-04-17T13:09:14.727Z,100001.94
2023-04-17T13:12:17.255Z,100002.50
2023-04-17T13:15:19.324Z,100007.53
2023-04-17T13:18:21.570Z,99999.97
2023-04-17T13:21:23.539Z,99994.41
2023-04-17T13:24:25.997Z,99992.00
2023-04-17T13:27:28.043Z,99994.84
2023-04-17T13:30:32.284Z,99995.69
2023-04-17T13:36:44.777Z,99996.94
2023-04-17T13:52:17.187Z,100024.19
2023-04-17T13:55:19.537Z,100028.66
2023-04-17T13:58:21.869Z,100021.31
2023-04-17T14:01:24.265Z,100018.31
2023-04-17T14:04:26.602Z,100015.75
2023-04-17T14:07:32.063Z,100001.78
2023-04-17T14:10:35.477Z,100004.69
2023-04-17T14:13:37.550Z,100003.81
2023-04-17T14:16:40.403Z,100000.94
2023-04-17T14:19:42.426Z,99995.44
2023-04-17T14:22:44.868Z,99992.81
2023-04-17T14:25:47.094Z,99987.00
2023-04-17T14:28:49.527Z,99990.50
2023-04-17T14:31:51.798Z,99985.16
2023-04-17T14:34:54.834Z,99984.94
2023-04-17T14:37:56.822Z,99989.34
2023-04-17T14:40:59.168Z,99976.31
2023-04-17T14:44:01.412Z,99978.06
2023-04-17T14:47:03.823Z,99972.63
2023-04-17T14:50:06.118Z,99976.00
2023-04-17T14:53:08.374Z,99976.00
2023-04-17T14:56:10.836Z,99973.66
2023-04-17T14:59:13.266Z,99972.13
2023-04-17T15:02:15.486Z,99978.06
2023-04-17T15:05:19.896Z,99975.44
2023-04-17T15:08:21.819Z,99977.63
2023-04-17T15:11:24.669Z,99975.59
2023-04-17T15:14:27.849Z,99977.03
2023-04-17T15:17:30.316Z,99982.62
2023-04-17T15:20:33.260Z,99974.75
2023-04-17T15:23:36.383Z,99981.97
2023-04-17T15:26:38.359Z,99981.56
2023-04-17T15:29:40.819Z,99973.53
2023-04-17T15:32:42.957Z,99981.72
2023-04-17T15:35:45.393Z,99976.97
2023-04-17T15:38:47.458Z,99975.59
2023-04-17T15:41:50.664Z,99970.97
2023-04-17T15:44:53.182Z,99969.84
2023-04-17T15:47:56.354Z,99969.63
2023-04-17T15:50:58.342Z,99984.53
2023-04-17T15:54:00.673Z,99975.56
2023-04-17T15:57:02.722Z,99979.94
2023-04-17T16:00:05.406Z,99973.66
2023-04-17T16:03:12.135Z,99977.22
2023-04-17T16:06:14.720Z,99981.09
2023-04-17T16:09:24.121Z,99980.63
2023-04-17T16:12:29.327Z,99978.41
2023-04-17T16:15:31.273Z,99978.56
2023-04-17T16:18:33.517Z,99980.91
2023-04-17T16:21:36.615Z,99974.66
2023-04-17T16:24:38.940Z,99977.50
2023-04-17T16:27:41.031Z,99976.50
2023-04-17T16:30:43.266Z,99977.34
2023-04-17T16:33:45.246Z,99984.13
2023-04-17T16:36:48.060Z,99981.53
2023-04-17T16:39:51.111Z,99981.75
2023-04-17T16:42:53.491Z,99988.00
2023-04-17T16:45:55.464Z,99977.03
2023-04-17T16:48:57.764Z,99982.62
2023-04-17T16:51:59.780Z,99984.06
2023-04-17T16:55:02.043Z,99982.81
2023-04-17T16:58:04.422Z,99985.56
2023-04-17T17:01:06.895Z,99989.25
2023-04-17T17:04:09.088Z,99988.84
2023-04-17T17:07:11.866Z,99989.97
2023-04-17T17:10:14.042Z,99992.34
2023-04-17T17:13:16.789Z,99995.72
2023-04-17T17:16:20.755Z,99982.50
2023-04-17T17:19:23.051Z,99989.16
2023-04-17T17:22:25.507Z,99995.16
2023-04-17T17:25:27.721Z,99988.22
2023-04-17T17:28:29.716Z,99997.00
2023-04-17T17:31:32.889Z,99995.75
2023-04-17T17:34:36.480Z,99994.34
2023-04-17T17:37:38.851Z,99991.81
2023-04-17T17:40:40.945Z,99988.50
2023-04-17T17:43:43.197Z,99995.03
2023-04-17T17:46:45.339Z,99989.47
2023-04-17T17:49:47.909Z,99979.75
2023-04-17T17:52:49.928Z,99992.97
2023-04-17T17:55:56.172Z,99996.88
2023-04-17T17:58:58.154Z,100000.34
2023-04-17T18:02:01.891Z,99999.75
2023-04-17T18:05:04.685Z,99998.50
2023-04-17T18:08:06.940Z,100002.25
2023-04-17T18:11:09.202Z,100007.81
2023-04-17T18:14:11.575Z,100013.66
2023-04-17T18:17:14.024Z,100013.37
2023-04-17T18:20:16.095Z,100012.84
2023-04-17T18:23:18.316Z,100017.28
2023-04-17T18:26:20.310Z,100025.78
2023-04-17T18:29:22.534Z,100023.00
2023-04-17T18:32:24.539Z,100029.69
2023-04-17T18:35:26.972Z,100025.22
2023-04-17T18:38:28.990Z,100021.19
2023-04-17T18:41:32.367Z,100030.78
2023-04-17T18:44:34.433Z,100021.88
2023-04-17T18:47:36.691Z,100029.34
2023-04-17T18:50:38.787Z,100028.13
2023-04-17T18:53:41.088Z,100033.50
2023-04-17T18:56:43.521Z,100033.50
2023-04-17T18:59:45.782Z,100034.03
2023-04-17T19:02:47.976Z,100038.56
2023-04-17T19:05:50.336Z,100037.84
2023-04-17T19:08:54.411Z,100042.84
2023-04-17T19:11:57.402Z,100044.88
2023-04-17T19:14:59.357Z,100044.31
2023-04-17T19:18:01.715Z,100051.03
2023-04-17T19:21:04.079Z,100045.19
2023-04-17T19:24:07.165Z,100050.31
2023-04-17T19:27:09.256Z,100049.19
2023-04-17T19:30:11.983Z,100047.25
2023-04-17T19:33:14.001Z,100051.81
2023-04-17T19:36:16.324Z,100051.91
2023-04-17T19:39:19.417Z,100051.75
2023-04-17T19:42:21.799Z,100054.09
2023-04-17T19:45:23.810Z,100052.75
2023-04-17T19:48:26.111Z,100055.44
2023-04-17T19:51:28.480Z,100051.31
2023-04-17T19:54:30.831Z,100049.91
2023-04-17T19:57:32.856Z,100052.09
2023-04-17T20:00:35.124Z,100040.44
2023-04-17T20:03:39.333Z,100037.94
2023-04-17T20:06:41.594Z,100048.06
2023-04-17T20:09:44.061Z,100042.25
2023-04-17T20:12:46.038Z,100036.84
2023-04-17T20:15:48.551Z,100040.06
2023-04-17T20:18:51.774Z,100039.81
2023-04-17T20:24:56.214Z,100044.88
2023-04-17T20:27:58.446Z,100040.44
2023-04-17T20:31:00.707Z,100049.44
2023-04-17T20:34:06.104Z,100045.72
2023-04-17T20:37:08.098Z,100056.53
2023-04-17T20:40:12.072Z,100055.00
2023-04-17T20:43:14.182Z,100056.78
2023-04-17T20:46:16.479Z,100064.72
2023-04-17T20:49:18.489Z,100064.59
2023-04-17T20:52:20.697Z,100063.63
2023-04-17T20:55:24.196Z,100068.53
2023-04-17T20:58:26.496Z,100065.16
2023-04-17T21:01:28.612Z,100063.78
2023-04-17T21:04:30.997Z,100072.25
2023-04-17T21:07:32.993Z,100076.75
2023-04-17T21:10:36.337Z,100069.09
2023-04-17T21:13:38.336Z,100070.75
2023-04-17T21:16:41.560Z,100069.09
2023-04-17T21:19:43.642Z,100074.19
2023-04-17T21:22:46.103Z,100073.34
2023-04-17T21:25:50.552Z,100076.19
2023-04-17T21:28:53.017Z,100077.31
2023-04-17T21:31:55.845Z,100084.81
2023-04-17T21:34:58.402Z,100085.31
2023-04-17T21:38:02.063Z,100082.84
2023-04-17T21:41:04.405Z,100091.75
2023-04-17T21:44:06.517Z,100072.81
2023-04-17T21:47:08.858Z,100075.84
2023-04-17T21:50:11.006Z,100070.56
2023-04-17T21:53:13.368Z,100074.63
2023-04-17T21:56:15.456Z,100074.78
2023-04-17T21:59:18.177Z,100071.66
2023-04-17T22:02:20.250Z,100073.25
2023-04-17T22:05:22.567Z,100075.56
2023-04-17T22:08:24.671Z,100076.97
2023-04-17T22:11:27.010Z,100077.81
2023-04-17T22:14:29.004Z,100075.91
2023-04-17T22:17:31.584Z,100079.88
2023-04-17T22:20:34.403Z,100072.22
2023-04-17T22:23:36.771Z,100069.81
2023-04-17T22:26:38.768Z,100074.78
2023-04-17T22:29:41.070Z,100078.13
2023-04-17T22:32:43.107Z,100078.63
2023-04-17T22:35:45.513Z,100080.28
2023-04-17T22:38:47.543Z,100079.44
2023-04-17T22:41:49.806Z,100075.25
2023-04-17T22:44:52.022Z,100080.09
2023-04-17T22:47:54.363Z,100087.00
2023-04-17T22:50:56.435Z,100091.13
2023-04-17T22:53:59.956Z,100087.66
2023-04-17T22:57:03.875Z,100081.19
2023-04-17T23:00:08.796Z,100086.28
2023-04-17T23:03:10.887Z,100085.22
2023-04-17T23:06:13.299Z,100093.69
2023-04-17T23:09:15.472Z,100084.28
2023-04-17T23:12:17.724Z,100090.88
2023-04-17T23:15:19.728Z,100088.22
2023-04-17T23:18:22.069Z,100086.34
2023-04-17T23:21:27.085Z,100089.81
2023-04-17T23:24:32.023Z,100091.94
2023-04-17T23:27:34.096Z,100089.91
2023-04-17T23:30:36.405Z,100090.75
2023-04-17T23:33:38.434Z,100090.25
2023-04-17T23:36:40.709Z,100082.16
2023-04-17T23:39:43.194Z,100085.22
2023-04-17T23:42:46.125Z,100076.97
2023-04-17T23:45:48.212Z,100076.66
2023-04-17T23:48:50.799Z,100077.84
2023-04-17T23:51:52.785Z,100080.25
2023-04-17T23:54:55.042Z,100084.56
2023-04-17T23:57:57.258Z,100080.38
